Main page
METAR-TAF:

METAR-TAF

Airports :

Bordeaux–Mérignac Airport

Bordeaux, France

latitude: 44-50N, longitude: 000-42W, elevation: 49 m

Current weather observation

The report was made 14 minutes ago, at 18:30 UTC
Wind 10 kt from the North/Northeast
Temperature 5°C
Humidity 75%
Pressure 1003 hPa
Visibility 10 km or more
no clouds below 1500 m and no cumulonimbus

METAR: LFBD 191830Z AUTO 02010KT CAVOK 05/01 Q1003 NOSIG

Time: 19:44 (18:44 UTC)

Forecast

The report was made 1 hour and 44 minutes ago, at 17:00 UTC
Forecast valid from 19 at 18 UTC to 20 at 24 UTC
Wind 7 kt from the North/Northeast
Visibility 10 km or more
no clouds below 1500 m and no cumulonimbus
Probability 40%
from 20 at 06 UTC to 20 at 10 UTC
Overcast at a height of 1000 ft
Probability 30%
from 20 at 06 UTC to 20 at 09 UTC
Overcast at a height of 500 ft

TAF: LFBD 191700Z 1918/2024 03007KT CAVOK TX06/1918Z TN00/2006Z PROB40 2006/2010 OVC010 PROB30 2006/2009 OVC005

Weather observations and forecasts of more than 4000 airports (METAR and TAF reports).

The available stations are represented by yellow and red dots on the map.

Hover mouse over dot to see the name of the station.

Then click to see weather observations and forecasts.

To change the map : click on the green buttons with a black cross to zoom in, on the green button with a dash to zoom out, or on the green arrows for adjacent maps.


METAR-TAF: